sensor_id;sensor_type;location;lat;lon;timestamp;P1;durP1;ratioP1;P2;durP2;ratioP2
16228;SDS011;8222;51.462;12.630;2022-12-18T00:01:50;34.28;;;21.40;;
16228;SDS011;8222;51.462;12.630;2022-12-18T00:04:22;33.58;;;21.17;;
16228;SDS011;8222;51.462;12.630;2022-12-18T00:06:49;33.10;;;21.85;;
16228;SDS011;8222;51.462;12.630;2022-12-18T00:09:15;32.25;;;22.38;;
16228;SDS011;8222;51.462;12.630;2022-12-18T00:11:41;37.10;;;24.03;;
16228;SDS011;8222;51.462;12.630;2022-12-18T00:14:08;36.03;;;22.67;;
16228;SDS011;8222;51.462;12.630;2022-12-18T00:16:36;37.22;;;24.38;;
16228;SDS011;8222;51.462;12.630;2022-12-18T00:19:03;34.57;;;23.10;;
16228;SDS011;8222;51.462;12.630;2022-12-18T00:21:29;36.80;;;24.08;;
16228;SDS011;8222;51.462;12.630;2022-12-18T00:23:57;36.77;;;22.17;;
16228;SDS011;8222;51.462;12.630;2022-12-18T00:26:28;40.30;;;24.83;;
16228;SDS011;8222;51.462;12.630;2022-12-18T00:28:57;33.85;;;23.13;;
16228;SDS011;8222;51.462;12.630;2022-12-18T00:31:24;31.92;;;22.08;;
16228;SDS011;8222;51.462;12.630;2022-12-18T00:33:50;36.97;;;23.03;;
16228;SDS011;8222;51.462;12.630;2022-12-18T00:36:17;38.50;;;25.83;;
16228;SDS011;8222;51.462;12.630;2022-12-18T00:38:46;41.35;;;26.20;;
16228;SDS011;8222;51.462;12.630;2022-12-18T00:41:13;42.75;;;25.75;;
16228;SDS011;8222;51.462;12.630;2022-12-18T00:44:00;43.90;;;27.15;;
16228;SDS011;8222;51.462;12.630;2022-12-18T00:46:30;42.63;;;25.20;;
16228;SDS011;8222;51.462;12.630;2022-12-18T00:48:56;44.97;;;26.08;;
16228;SDS011;8222;51.462;12.630;2022-12-18T00:51:22;38.13;;;26.33;;
16228;SDS011;8222;51.462;12.630;2022-12-18T00:53:48;42.42;;;25.13;;
16228;SDS011;8222;51.462;12.630;2022-12-18T00:56:14;36.60;;;23.93;;
16228;SDS011;8222;51.462;12.630;2022-12-18T00:58:39;38.10;;;25.37;;
16228;SDS011;8222;51.462;12.630;2022-12-18T01:01:05;38.30;;;25.30;;
16228;SDS011;8222;51.462;12.630;2022-12-18T01:03:31;37.83;;;23.63;;
16228;SDS011;8222;51.462;12.630;2022-12-18T01:05:59;28.55;;;19.40;;
16228;SDS011;8222;51.462;12.630;2022-12-18T01:08:29;31.65;;;21.92;;
16228;SDS011;8222;51.462;12.630;2022-12-18T01:10:55;32.93;;;23.00;;
16228;SDS011;8222;51.462;12.630;2022-12-18T01:13:21;35.90;;;23.92;;
16228;SDS011;8222;51.462;12.630;2022-12-18T01:15:50;26.53;;;16.97;;
16228;SDS011;8222;51.462;12.630;2022-12-18T01:18:17;31.27;;;19.30;;
16228;SDS011;8222;51.462;12.630;2022-12-18T01:20:43;34.90;;;22.45;;
16228;SDS011;8222;51.462;12.630;2022-12-18T01:23:08;36.15;;;23.63;;
16228;SDS011;8222;51.462;12.630;2022-12-18T01:25:37;36.30;;;22.47;;
16228;SDS011;8222;51.462;12.630;2022-12-18T01:28:03;33.40;;;21.80;;
16228;SDS011;8222;51.462;12.630;2022-12-18T01:30:30;33.08;;;20.05;;
16228;SDS011;8222;51.462;12.630;2022-12-18T01:32:56;30.27;;;21.83;;
16228;SDS011;8222;51.462;12.630;2022-12-18T01:35:22;34.85;;;22.98;;
16228;SDS011;8222;51.462;12.630;2022-12-18T01:37:48;34.87;;;22.40;;
16228;SDS011;8222;51.462;12.630;2022-12-18T01:40:13;30.67;;;20.87;;
16228;SDS011;8222;51.462;12.630;2022-12-18T01:42:39;30.88;;;21.02;;
16228;SDS011;8222;51.462;12.630;2022-12-18T01:48:03;34.67;;;22.65;;
16228;SDS011;8222;51.462;12.630;2022-12-18T01:50:33;32.42;;;20.92;;
16228;SDS011;8222;51.462;12.630;2022-12-18T01:53:07;31.30;;;20.50;;
16228;SDS011;8222;51.462;12.630;2022-12-18T01:55:42;32.07;;;21.10;;
16228;SDS011;8222;51.462;12.630;2022-12-18T01:58:19;29.77;;;21.07;;
16228;SDS011;8222;51.462;12.630;2022-12-18T02:00:47;31.23;;;20.33;;
16228;SDS011;8222;51.462;12.630;2022-12-18T02:03:13;29.73;;;19.13;;
16228;SDS011;8222;51.462;12.630;2022-12-18T02:16:10;27.73;;;19.10;;
16228;SDS011;8222;51.462;12.630;2022-12-18T02:18:41;28.17;;;19.48;;
16228;SDS011;8222;51.462;12.630;2022-12-18T02:23:54;30.98;;;21.02;;
16228;SDS011;8222;51.462;12.630;2022-12-18T02:29:16;31.77;;;19.75;;
16228;SDS011;8222;51.462;12.630;2022-12-18T02:31:50;32.83;;;21.67;;
16228;SDS011;8222;51.462;12.630;2022-12-18T02:34:18;27.98;;;18.42;;
16228;SDS011;8222;51.462;12.630;2022-12-18T02:36:47;30.08;;;19.40;;
16228;SDS011;8222;51.462;12.630;2022-12-18T02:39:16;32.38;;;21.70;;
16228;SDS011;8222;51.462;12.630;2022-12-18T02:41:42;29.58;;;19.77;;
16228;SDS011;8222;51.462;12.630;2022-12-18T02:44:10;27.63;;;19.03;;
16228;SDS011;8222;51.462;12.630;2022-12-18T02:51:44;32.13;;;21.07;;
16228;SDS011;8222;51.462;12.630;2022-12-18T02:54:30;30.90;;;20.27;;
16228;SDS011;8222;51.462;12.630;2022-12-18T02:57:18;29.37;;;20.73;;
16228;SDS011;8222;51.462;12.630;2022-12-18T03:00:20;30.75;;;21.83;;
16228;SDS011;8222;51.462;12.630;2022-12-18T03:06:06;30.15;;;20.48;;
16228;SDS011;8222;51.462;12.630;2022-12-18T03:08:47;32.33;;;20.27;;
16228;SDS011;8222;51.462;12.630;2022-12-18T03:11:17;27.90;;;20.63;;
16228;SDS011;8222;51.462;12.630;2022-12-18T03:14:02;31.85;;;20.38;;
16228;SDS011;8222;51.462;12.630;2022-12-18T03:16:31;27.77;;;20.05;;
16228;SDS011;8222;51.462;12.630;2022-12-18T03:19:00;29.35;;;20.17;;
16228;SDS011;8222;51.462;12.630;2022-12-18T03:21:28;29.95;;;19.77;;
16228;SDS011;8222;51.462;12.630;2022-12-18T03:24:00;29.25;;;18.75;;
16228;SDS011;8222;51.462;12.630;2022-12-18T03:26:30;30.30;;;18.80;;
16228;SDS011;8222;51.462;12.630;2022-12-18T03:29:00;28.02;;;19.85;;
16228;SDS011;8222;51.462;12.630;2022-12-18T03:31:32;31.60;;;20.70;;
16228;SDS011;8222;51.462;12.630;2022-12-18T03:33:58;31.73;;;20.60;;
16228;SDS011;8222;51.462;12.630;2022-12-18T03:36:39;23.90;;;15.40;;
16228;SDS011;8222;51.462;12.630;2022-12-18T03:39:04;28.23;;;19.35;;
16228;SDS011;8222;51.462;12.630;2022-12-18T03:41:34;29.83;;;20.50;;
16228;SDS011;8222;51.462;12.630;2022-12-18T03:44:13;22.98;;;17.00;;
16228;SDS011;8222;51.462;12.630;2022-12-18T03:49:27;29.65;;;19.35;;
16228;SDS011;8222;51.462;12.630;2022-12-18T03:54:33;30.23;;;19.15;;
16228;SDS011;8222;51.462;12.630;2022-12-18T03:57:03;32.67;;;20.92;;
16228;SDS011;8222;51.462;12.630;2022-12-18T03:59:32;30.20;;;20.90;;
16228;SDS011;8222;51.462;12.630;2022-12-18T04:02:00;26.42;;;18.05;;
16228;SDS011;8222;51.462;12.630;2022-12-18T04:04:28;29.98;;;20.15;;
16228;SDS011;8222;51.462;12.630;2022-12-18T04:06:56;29.85;;;20.88;;
16228;SDS011;8222;51.462;12.630;2022-12-18T04:09:23;30.70;;;21.48;;
16228;SDS011;8222;51.462;12.630;2022-12-18T04:11:51;31.60;;;20.58;;
16228;SDS011;8222;51.462;12.630;2022-12-18T04:14:17;33.72;;;20.80;;
16228;SDS011;8222;51.462;12.630;2022-12-18T04:16:45;28.15;;;19.42;;
16228;SDS011;8222;51.462;12.630;2022-12-18T04:19:10;33.80;;;21.33;;
16228;SDS011;8222;51.462;12.630;2022-12-18T04:21:36;28.37;;;20.20;;
16228;SDS011;8222;51.462;12.630;2022-12-18T04:24:01;29.87;;;20.27;;
16228;SDS011;8222;51.462;12.630;2022-12-18T04:26:29;28.38;;;20.35;;
16228;SDS011;8222;51.462;12.630;2022-12-18T04:28:55;28.53;;;20.63;;
16228;SDS011;8222;51.462;12.630;2022-12-18T04:31:21;30.30;;;19.83;;
16228;SDS011;8222;51.462;12.630;2022-12-18T04:33:48;29.42;;;18.40;;
16228;SDS011;8222;51.462;12.630;2022-12-18T04:36:14;30.75;;;19.65;;
16228;SDS011;8222;51.462;12.630;2022-12-18T04:38:40;27.52;;;19.50;;
16228;SDS011;8222;51.462;12.630;2022-12-18T04:41:09;28.55;;;19.95;;
16228;SDS011;8222;51.462;12.630;2022-12-18T04:43:35;28.55;;;20.25;;
16228;SDS011;8222;51.462;12.630;2022-12-18T04:46:01;28.70;;;19.40;;
16228;SDS011;8222;51.462;12.630;2022-12-18T04:48:29;26.42;;;18.50;;
16228;SDS011;8222;51.462;12.630;2022-12-18T04:50:54;28.77;;;20.03;;
16228;SDS011;8222;51.462;12.630;2022-12-18T04:53:20;24.30;;;14.93;;
16228;SDS011;8222;51.462;12.630;2022-12-18T04:55:47;28.95;;;17.83;;
16228;SDS011;8222;51.462;12.630;2022-12-18T04:58:13;27.20;;;16.50;;
16228;SDS011;8222;51.462;12.630;2022-12-18T05:00:38;28.60;;;20.27;;
16228;SDS011;8222;51.462;12.630;2022-12-18T05:03:04;28.77;;;19.90;;
16228;SDS011;8222;51.462;12.630;2022-12-18T05:05:30;27.70;;;19.65;;
16228;SDS011;8222;51.462;12.630;2022-12-18T05:07:55;32.33;;;20.03;;
16228;SDS011;8222;51.462;12.630;2022-12-18T05:10:21;26.65;;;19.73;;
16228;SDS011;8222;51.462;12.630;2022-12-18T05:12:47;27.00;;;19.33;;
16228;SDS011;8222;51.462;12.630;2022-12-18T05:15:24;18.70;;;13.53;;
16228;SDS011;8222;51.462;12.630;2022-12-18T05:17:55;26.77;;;18.85;;
16228;SDS011;8222;51.462;12.630;2022-12-18T05:20:22;28.27;;;18.40;;
16228;SDS011;8222;51.462;12.630;2022-12-18T05:22:48;28.75;;;18.67;;
16228;SDS011;8222;51.462;12.630;2022-12-18T05:25:13;28.63;;;19.20;;
16228;SDS011;8222;51.462;12.630;2022-12-18T05:27:40;29.35;;;19.63;;
16228;SDS011;8222;51.462;12.630;2022-12-18T05:30:05;26.13;;;19.38;;
16228;SDS011;8222;51.462;12.630;2022-12-18T05:32:32;27.52;;;19.00;;
16228;SDS011;8222;51.462;12.630;2022-12-18T05:34:58;28.58;;;19.65;;
16228;SDS011;8222;51.462;12.630;2022-12-18T05:37:23;32.27;;;22.07;;
16228;SDS011;8222;51.462;12.630;2022-12-18T05:39:49;27.80;;;18.42;;
16228;SDS011;8222;51.462;12.630;2022-12-18T05:42:14;27.67;;;18.10;;
16228;SDS011;8222;51.462;12.630;2022-12-18T05:44:40;24.07;;;17.97;;
16228;SDS011;8222;51.462;12.630;2022-12-18T05:47:08;24.63;;;17.90;;
16228;SDS011;8222;51.462;12.630;2022-12-18T05:49:33;26.67;;;19.55;;
16228;SDS011;8222;51.462;12.630;2022-12-18T05:51:59;27.05;;;19.90;;
16228;SDS011;8222;51.462;12.630;2022-12-18T05:54:26;21.67;;;15.07;;
16228;SDS011;8222;51.462;12.630;2022-12-18T05:56:53;15.70;;;12.05;;
16228;SDS011;8222;51.462;12.630;2022-12-18T05:59:18;29.88;;;20.02;;
16228;SDS011;8222;51.462;12.630;2022-12-18T06:01:46;31.75;;;19.85;;
16228;SDS011;8222;51.462;12.630;2022-12-18T06:04:14;27.60;;;16.92;;
16228;SDS011;8222;51.462;12.630;2022-12-18T06:06:39;29.27;;;18.00;;
16228;SDS011;8222;51.462;12.630;2022-12-18T06:09:05;29.05;;;20.65;;
16228;SDS011;8222;51.462;12.630;2022-12-18T06:11:33;25.10;;;18.25;;
16228;SDS011;8222;51.462;12.630;2022-12-18T06:14:00;27.90;;;18.23;;
16228;SDS011;8222;51.462;12.630;2022-12-18T06:16:28;33.05;;;21.38;;
16228;SDS011;8222;51.462;12.630;2022-12-18T06:18:58;26.37;;;19.83;;
16228;SDS011;8222;51.462;12.630;2022-12-18T06:21:24;26.55;;;19.40;;
16228;SDS011;8222;51.462;12.630;2022-12-18T06:23:51;27.30;;;19.48;;
16228;SDS011;8222;51.462;12.630;2022-12-18T06:26:16;26.15;;;17.80;;
16228;SDS011;8222;51.462;12.630;2022-12-18T06:28:42;24.15;;;17.98;;
16228;SDS011;8222;51.462;12.630;2022-12-18T06:31:08;26.00;;;18.83;;
16228;SDS011;8222;51.462;12.630;2022-12-18T06:33:36;28.10;;;18.98;;
16228;SDS011;8222;51.462;12.630;2022-12-18T06:38:29;26.45;;;18.27;;
16228;SDS011;8222;51.462;12.630;2022-12-18T06:40:57;25.95;;;17.13;;
16228;SDS011;8222;51.462;12.630;2022-12-18T06:43:25;26.25;;;17.88;;
16228;SDS011;8222;51.462;12.630;2022-12-18T06:45:50;24.35;;;17.45;;
16228;SDS011;8222;51.462;12.630;2022-12-18T06:48:20;24.02;;;17.33;;
16228;SDS011;8222;51.462;12.630;2022-12-18T06:50:47;26.60;;;17.92;;
16228;SDS011;8222;51.462;12.630;2022-12-18T06:53:12;25.15;;;17.52;;
16228;SDS011;8222;51.462;12.630;2022-12-18T06:55:40;22.42;;;17.80;;
16228;SDS011;8222;51.462;12.630;2022-12-18T06:58:06;26.83;;;17.97;;
16228;SDS011;8222;51.462;12.630;2022-12-18T07:00:31;21.73;;;17.23;;
16228;SDS011;8222;51.462;12.630;2022-12-18T07:02:59;26.13;;;17.83;;
16228;SDS011;8222;51.462;12.630;2022-12-18T07:05:24;24.97;;;17.13;;
16228;SDS011;8222;51.462;12.630;2022-12-18T07:07:50;26.23;;;18.97;;
16228;SDS011;8222;51.462;12.630;2022-12-18T07:10:18;27.27;;;18.58;;
16228;SDS011;8222;51.462;12.630;2022-12-18T07:12:43;27.52;;;19.00;;
16228;SDS011;8222;51.462;12.630;2022-12-18T07:15:09;28.57;;;22.57;;
16228;SDS011;8222;51.462;12.630;2022-12-18T07:17:35;23.75;;;18.08;;
16228;SDS011;8222;51.462;12.630;2022-12-18T07:20:00;23.70;;;17.27;;
16228;SDS011;8222;51.462;12.630;2022-12-18T07:22:26;23.40;;;16.05;;
16228;SDS011;8222;51.462;12.630;2022-12-18T07:24:52;25.70;;;17.67;;
16228;SDS011;8222;51.462;12.630;2022-12-18T07:27:18;23.58;;;16.15;;
16228;SDS011;8222;51.462;12.630;2022-12-18T07:29:46;27.13;;;17.85;;
16228;SDS011;8222;51.462;12.630;2022-12-18T07:32:11;22.83;;;17.37;;
16228;SDS011;8222;51.462;12.630;2022-12-18T07:34:37;23.00;;;17.63;;
16228;SDS011;8222;51.462;12.630;2022-12-18T07:37:03;27.00;;;20.52;;
16228;SDS011;8222;51.462;12.630;2022-12-18T07:39:29;23.75;;;18.50;;
16228;SDS011;8222;51.462;12.630;2022-12-18T07:41:55;21.30;;;17.47;;
16228;SDS011;8222;51.462;12.630;2022-12-18T07:44:39;24.13;;;17.38;;
16228;SDS011;8222;51.462;12.630;2022-12-18T07:47:05;23.73;;;18.37;;
16228;SDS011;8222;51.462;12.630;2022-12-18T07:49:31;22.73;;;17.77;;
16228;SDS011;8222;51.462;12.630;2022-12-18T07:51:59;20.43;;;15.43;;
16228;SDS011;8222;51.462;12.630;2022-12-18T07:54:25;22.88;;;16.85;;
16228;SDS011;8222;51.462;12.630;2022-12-18T07:56:51;23.90;;;17.67;;
16228;SDS011;8222;51.462;12.630;2022-12-18T07:59:18;24.23;;;17.70;;
16228;SDS011;8222;51.462;12.630;2022-12-18T08:01:44;26.63;;;18.80;;
16228;SDS011;8222;51.462;12.630;2022-12-18T08:04:09;25.48;;;18.45;;
16228;SDS011;8222;51.462;12.630;2022-12-18T08:06:35;22.23;;;16.13;;
16228;SDS011;8222;51.462;12.630;2022-12-18T08:09:01;23.93;;;17.23;;
16228;SDS011;8222;51.462;12.630;2022-12-18T08:11:29;22.13;;;16.63;;
16228;SDS011;8222;51.462;12.630;2022-12-18T08:13:55;20.17;;;16.58;;
16228;SDS011;8222;51.462;12.630;2022-12-18T08:16:21;22.48;;;17.40;;
16228;SDS011;8222;51.462;12.630;2022-12-18T08:18:47;23.40;;;16.42;;
16228;SDS011;8222;51.462;12.630;2022-12-18T08:21:14;26.08;;;16.70;;
16228;SDS011;8222;51.462;12.630;2022-12-18T08:23:42;25.05;;;18.48;;
16228;SDS011;8222;51.462;12.630;2022-12-18T08:26:08;21.08;;;15.00;;
16228;SDS011;8222;51.462;12.630;2022-12-18T08:28:34;23.33;;;16.13;;
16228;SDS011;8222;51.462;12.630;2022-12-18T08:31:00;24.00;;;17.40;;
16228;SDS011;8222;51.462;12.630;2022-12-18T08:33:27;24.35;;;17.38;;
16228;SDS011;8222;51.462;12.630;2022-12-18T08:35:53;21.10;;;15.07;;
16228;SDS011;8222;51.462;12.630;2022-12-18T08:38:18;24.67;;;16.10;;
16228;SDS011;8222;51.462;12.630;2022-12-18T08:40:44;22.00;;;16.20;;
16228;SDS011;8222;51.462;12.630;2022-12-18T08:43:10;21.17;;;15.88;;
16228;SDS011;8222;51.462;12.630;2022-12-18T08:45:56;23.35;;;15.65;;
16228;SDS011;8222;51.462;12.630;2022-12-18T08:48:22;22.65;;;15.82;;
16228;SDS011;8222;51.462;12.630;2022-12-18T08:50:59;21.63;;;15.77;;
16228;SDS011;8222;51.462;12.630;2022-12-18T08:53:25;19.63;;;15.23;;
16228;SDS011;8222;51.462;12.630;2022-12-18T08:55:51;19.17;;;13.60;;
16228;SDS011;8222;51.462;12.630;2022-12-18T08:58:17;19.00;;;11.17;;
16228;SDS011;8222;51.462;12.630;2022-12-18T09:00:43;20.65;;;16.17;;
16228;SDS011;8222;51.462;12.630;2022-12-18T09:03:15;22.70;;;16.42;;
16228;SDS011;8222;51.462;12.630;2022-12-18T09:05:45;22.23;;;16.23;;
16228;SDS011;8222;51.462;12.630;2022-12-18T09:08:11;22.50;;;13.45;;
16228;SDS011;8222;51.462;12.630;2022-12-18T09:10:41;20.58;;;15.40;;
16228;SDS011;8222;51.462;12.630;2022-12-18T09:13:09;20.45;;;15.75;;
16228;SDS011;8222;51.462;12.630;2022-12-18T09:15:47;20.58;;;16.30;;
16228;SDS011;8222;51.462;12.630;2022-12-18T09:18:16;22.75;;;17.30;;
16228;SDS011;8222;51.462;12.630;2022-12-18T09:20:43;38.00;;;27.73;;
16228;SDS011;8222;51.462;12.630;2022-12-18T09:23:09;20.60;;;16.63;;
16228;SDS011;8222;51.462;12.630;2022-12-18T09:25:37;22.90;;;17.60;;
16228;SDS011;8222;51.462;12.630;2022-12-18T09:28:04;20.70;;;15.63;;
16228;SDS011;8222;51.462;12.630;2022-12-18T09:30:31;19.73;;;16.17;;
16228;SDS011;8222;51.462;12.630;2022-12-18T09:32:58;20.83;;;17.30;;
16228;SDS011;8222;51.462;12.630;2022-12-18T09:35:25;23.70;;;17.20;;
16228;SDS011;8222;51.462;12.630;2022-12-18T09:37:52;19.90;;;15.68;;
16228;SDS011;8222;51.462;12.630;2022-12-18T09:40:22;21.10;;;15.50;;
16228;SDS011;8222;51.462;12.630;2022-12-18T09:42:57;20.27;;;15.60;;
16228;SDS011;8222;51.462;12.630;2022-12-18T09:45:28;19.10;;;15.07;;
16228;SDS011;8222;51.462;12.630;2022-12-18T09:48:02;20.65;;;15.40;;
16228;SDS011;8222;51.462;12.630;2022-12-18T09:50:31;21.15;;;15.20;;
16228;SDS011;8222;51.462;12.630;2022-12-18T09:53:04;19.60;;;14.88;;
16228;SDS011;8222;51.462;12.630;2022-12-18T09:55:40;20.00;;;15.43;;
16228;SDS011;8222;51.462;12.630;2022-12-18T09:58:26;21.30;;;15.93;;
16228;SDS011;8222;51.462;12.630;2022-12-18T10:01:14;21.30;;;16.08;;
16228;SDS011;8222;51.462;12.630;2022-12-18T10:03:43;23.63;;;16.98;;
16228;SDS011;8222;51.462;12.630;2022-12-18T10:11:55;21.97;;;16.67;;
16228;SDS011;8222;51.462;12.630;2022-12-18T10:17:15;22.48;;;17.27;;
16228;SDS011;8222;51.462;12.630;2022-12-18T10:28:16;24.17;;;16.42;;
16228;SDS011;8222;51.462;12.630;2022-12-18T10:30:44;24.80;;;18.13;;
16228;SDS011;8222;51.462;12.630;2022-12-18T10:33:11;19.85;;;16.25;;
16228;SDS011;8222;51.462;12.630;2022-12-18T10:35:45;20.10;;;16.50;;
16228;SDS011;8222;51.462;12.630;2022-12-18T10:40:48;20.67;;;15.60;;
16228;SDS011;8222;51.462;12.630;2022-12-18T10:45:58;23.55;;;15.77;;
16228;SDS011;8222;51.462;12.630;2022-12-18T10:48:27;20.50;;;15.20;;
16228;SDS011;8222;51.462;12.630;2022-12-18T10:50:53;18.35;;;15.10;;
16228;SDS011;8222;51.462;12.630;2022-12-18T10:53:24;19.77;;;15.23;;
16228;SDS011;8222;51.462;12.630;2022-12-18T10:55:53;20.85;;;16.23;;
16228;SDS011;8222;51.462;12.630;2022-12-18T11:00:53;20.70;;;16.98;;
16228;SDS011;8222;51.462;12.630;2022-12-18T11:03:31;19.58;;;14.73;;
16228;SDS011;8222;51.462;12.630;2022-12-18T11:06:07;19.85;;;15.32;;
16228;SDS011;8222;51.462;12.630;2022-12-18T11:08:41;16.50;;;14.70;;
16228;SDS011;8222;51.462;12.630;2022-12-18T11:11:21;15.70;;;13.60;;
16228;SDS011;8222;51.462;12.630;2022-12-18T11:14:05;20.05;;;15.73;;
16228;SDS011;8222;51.462;12.630;2022-12-18T11:16:43;20.88;;;14.65;;
16228;SDS011;8222;51.462;12.630;2022-12-18T11:19:24;17.13;;;14.13;;
16228;SDS011;8222;51.462;12.630;2022-12-18T11:22:02;17.33;;;13.68;;
16228;SDS011;8222;51.462;12.630;2022-12-18T11:24:50;13.70;;;9.87;;
16228;SDS011;8222;51.462;12.630;2022-12-18T11:27:20;16.88;;;12.30;;
16228;SDS011;8222;51.462;12.630;2022-12-18T11:29:46;16.37;;;12.60;;
16228;SDS011;8222;51.462;12.630;2022-12-18T11:32:35;16.45;;;12.23;;
16228;SDS011;8222;51.462;12.630;2022-12-18T11:35:08;17.25;;;13.70;;
16228;SDS011;8222;51.462;12.630;2022-12-18T11:37:41;18.77;;;14.05;;
16228;SDS011;8222;51.462;12.630;2022-12-18T11:40:20;15.77;;;14.05;;
16228;SDS011;8222;51.462;12.630;2022-12-18T11:45:41;20.10;;;15.05;;
16228;SDS011;8222;51.462;12.630;2022-12-18T11:48:14;16.85;;;12.82;;
16228;SDS011;8222;51.462;12.630;2022-12-18T11:50:59;18.20;;;14.93;;
16228;SDS011;8222;51.462;12.630;2022-12-18T11:53:28;16.35;;;13.43;;
16228;SDS011;8222;51.462;12.630;2022-12-18T11:58:34;15.68;;;12.55;;
16228;SDS011;8222;51.462;12.630;2022-12-18T12:01:51;19.02;;;14.20;;
16228;SDS011;8222;51.462;12.630;2022-12-18T12:04:48;16.57;;;13.03;;
16228;SDS011;8222;51.462;12.630;2022-12-18T12:07:34;18.20;;;13.85;;
16228;SDS011;8222;51.462;12.630;2022-12-18T12:10:32;16.92;;;13.32;;
16228;SDS011;8222;51.462;12.630;2022-12-18T12:16:04;19.00;;;14.45;;
16228;SDS011;8222;51.462;12.630;2022-12-18T12:21:40;19.73;;;14.95;;
16228;SDS011;8222;51.462;12.630;2022-12-18T12:27:08;19.45;;;13.70;;
16228;SDS011;8222;51.462;12.630;2022-12-18T12:30:19;20.00;;;14.82;;
16228;SDS011;8222;51.462;12.630;2022-12-18T12:38:20;21.17;;;16.73;;
16228;SDS011;8222;51.462;12.630;2022-12-18T12:40:48;20.52;;;15.45;;
16228;SDS011;8222;51.462;12.630;2022-12-18T12:48:26;20.40;;;15.00;;
16228;SDS011;8222;51.462;12.630;2022-12-18T12:51:18;23.00;;;16.20;;
16228;SDS011;8222;51.462;12.630;2022-12-18T12:53:47;22.27;;;17.30;;
16228;SDS011;8222;51.462;12.630;2022-12-18T12:56:14;23.73;;;18.85;;
16228;SDS011;8222;51.462;12.630;2022-12-18T13:09:19;24.13;;;17.65;;
16228;SDS011;8222;51.462;12.630;2022-12-18T13:11:46;24.60;;;17.93;;
16228;SDS011;8222;51.462;12.630;2022-12-18T13:14:37;22.98;;;17.02;;
16228;SDS011;8222;51.462;12.630;2022-12-18T13:17:14;22.75;;;17.05;;
16228;SDS011;8222;51.462;12.630;2022-12-18T13:20:04;21.67;;;16.33;;
16228;SDS011;8222;51.462;12.630;2022-12-18T13:22:40;22.98;;;16.10;;
16228;SDS011;8222;51.462;12.630;2022-12-18T13:25:35;22.77;;;16.48;;
16228;SDS011;8222;51.462;12.630;2022-12-18T13:28:09;22.90;;;17.23;;
16228;SDS011;8222;51.462;12.630;2022-12-18T13:30:45;20.10;;;15.98;;
16228;SDS011;8222;51.462;12.630;2022-12-18T13:35:39;17.63;;;14.23;;
16228;SDS011;8222;51.462;12.630;2022-12-18T13:41:00;20.50;;;15.13;;
16228;SDS011;8222;51.462;12.630;2022-12-18T13:43:32;20.67;;;15.70;;
16228;SDS011;8222;51.462;12.630;2022-12-18T13:51:27;17.70;;;14.45;;
16228;SDS011;8222;51.462;12.630;2022-12-18T13:56:46;19.45;;;14.98;;
16228;SDS011;8222;51.462;12.630;2022-12-18T14:01:47;26.50;;;19.85;;
16228;SDS011;8222;51.462;12.630;2022-12-18T14:04:24;28.00;;;20.58;;
16228;SDS011;8222;51.462;12.630;2022-12-18T14:09:45;28.13;;;20.13;;
16228;SDS011;8222;51.462;12.630;2022-12-18T14:12:29;30.10;;;22.33;;
16228;SDS011;8222;51.462;12.630;2022-12-18T14:15:34;38.65;;;25.38;;
16228;SDS011;8222;51.462;12.630;2022-12-18T14:20:55;27.80;;;21.80;;
16228;SDS011;8222;51.462;12.630;2022-12-18T14:29:00;31.00;;;21.88;;
16228;SDS011;8222;51.462;12.630;2022-12-18T14:31:43;30.75;;;21.02;;
16228;SDS011;8222;51.462;12.630;2022-12-18T14:34:16;28.83;;;21.08;;
16228;SDS011;8222;51.462;12.630;2022-12-18T14:36:44;28.92;;;20.13;;
16228;SDS011;8222;51.462;12.630;2022-12-18T14:39:18;29.92;;;22.55;;
16228;SDS011;8222;51.462;12.630;2022-12-18T14:41:43;30.95;;;23.95;;
16228;SDS011;8222;51.462;12.630;2022-12-18T14:44:10;34.75;;;22.70;;
16228;SDS011;8222;51.462;12.630;2022-12-18T14:46:44;38.60;;;28.67;;
16228;SDS011;8222;51.462;12.630;2022-12-18T14:51:52;31.27;;;22.50;;
16228;SDS011;8222;51.462;12.630;2022-12-18T14:54:29;29.65;;;21.15;;
16228;SDS011;8222;51.462;12.630;2022-12-18T14:57:04;32.88;;;24.88;;
16228;SDS011;8222;51.462;12.630;2022-12-18T14:59:50;32.22;;;24.38;;
16228;SDS011;8222;51.462;12.630;2022-12-18T15:02:25;34.40;;;25.42;;
16228;SDS011;8222;51.462;12.630;2022-12-18T15:05:00;31.57;;;23.43;;
16228;SDS011;8222;51.462;12.630;2022-12-18T15:07:38;28.35;;;22.42;;
16228;SDS011;8222;51.462;12.630;2022-12-18T15:10:11;27.85;;;22.45;;
16228;SDS011;8222;51.462;12.630;2022-12-18T15:12:39;29.35;;;22.40;;
16228;SDS011;8222;51.462;12.630;2022-12-18T15:18:19;32.08;;;24.75;;
16228;SDS011;8222;51.462;12.630;2022-12-18T15:20:57;32.10;;;23.38;;
16228;SDS011;8222;51.462;12.630;2022-12-18T15:26:09;30.48;;;22.60;;
16228;SDS011;8222;51.462;12.630;2022-12-18T15:28:51;33.43;;;22.33;;
16228;SDS011;8222;51.462;12.630;2022-12-18T15:36:49;29.27;;;22.48;;
16228;SDS011;8222;51.462;12.630;2022-12-18T15:39:16;36.70;;;24.42;;
16228;SDS011;8222;51.462;12.630;2022-12-18T15:41:43;33.63;;;24.97;;
16228;SDS011;8222;51.462;12.630;2022-12-18T15:44:29;33.38;;;24.67;;
16228;SDS011;8222;51.462;12.630;2022-12-18T15:46:55;36.67;;;24.13;;
16228;SDS011;8222;51.462;12.630;2022-12-18T15:49:20;32.05;;;24.33;;
16228;SDS011;8222;51.462;12.630;2022-12-18T15:51:48;35.33;;;24.03;;
16228;SDS011;8222;51.462;12.630;2022-12-18T15:54:17;32.92;;;21.88;;
16228;SDS011;8222;51.462;12.630;2022-12-18T15:57:03;39.85;;;26.73;;
16228;SDS011;8222;51.462;12.630;2022-12-18T15:59:49;36.20;;;26.33;;
16228;SDS011;8222;51.462;12.630;2022-12-18T16:02:18;32.05;;;22.20;;
16228;SDS011;8222;51.462;12.630;2022-12-18T16:04:44;33.00;;;22.27;;
16228;SDS011;8222;51.462;12.630;2022-12-18T16:07:13;32.88;;;23.05;;
16228;SDS011;8222;51.462;12.630;2022-12-18T16:09:38;34.70;;;23.87;;
16228;SDS011;8222;51.462;12.630;2022-12-18T16:12:25;33.67;;;24.30;;
16228;SDS011;8222;51.462;12.630;2022-12-18T16:14:50;35.47;;;24.17;;
16228;SDS011;8222;51.462;12.630;2022-12-18T16:17:16;37.37;;;23.20;;
16228;SDS011;8222;51.462;12.630;2022-12-18T16:19:42;38.42;;;24.45;;
16228;SDS011;8222;51.462;12.630;2022-12-18T16:22:14;38.93;;;24.37;;
16228;SDS011;8222;51.462;12.630;2022-12-18T16:24:46;33.50;;;22.67;;
16228;SDS011;8222;51.462;12.630;2022-12-18T16:27:11;31.27;;;21.87;;
16228;SDS011;8222;51.462;12.630;2022-12-18T16:29:39;37.17;;;22.70;;
16228;SDS011;8222;51.462;12.630;2022-12-18T16:32:04;29.33;;;19.40;;
16228;SDS011;8222;51.462;12.630;2022-12-18T16:34:33;31.35;;;20.10;;
16228;SDS011;8222;51.462;12.630;2022-12-18T16:37:00;31.20;;;21.60;;
16228;SDS011;8222;51.462;12.630;2022-12-18T16:39:31;32.30;;;21.33;;
16228;SDS011;8222;51.462;12.630;2022-12-18T16:41:59;30.42;;;20.23;;
16228;SDS011;8222;51.462;12.630;2022-12-18T16:44:29;32.35;;;21.75;;
16228;SDS011;8222;51.462;12.630;2022-12-18T16:46:55;29.70;;;21.23;;
16228;SDS011;8222;51.462;12.630;2022-12-18T16:49:26;32.63;;;20.98;;
16228;SDS011;8222;51.462;12.630;2022-12-18T16:51:53;31.77;;;20.17;;
16228;SDS011;8222;51.462;12.630;2022-12-18T16:54:19;32.70;;;21.60;;
16228;SDS011;8222;51.462;12.630;2022-12-18T16:56:44;31.30;;;20.73;;